Time;durP1;ratioP1;P1;durP2;ratioP2;P2;SDS_P1;SDS_P2;PMS_P1;PMS_P2;Temp;Humidity;BMP_temperature;BMP_pressure;BME280_temperature;BME280_humidity;BME280_pressure;Samples;Min_cycle;Max_cycle;Signal;HPM_P1;HPM_P2
2022/05/16 00:01:42;;;;;;;0.70;0.70;;;;;;;;;;5072536;28;20460;-74
2022/05/16 00:04:09;;;;;;;0.70;0.60;;;;;;;;;;5073218;28;20460;-75
2022/05/16 00:06:36;;;;;;;0.80;0.60;;;;;;;;;;5071749;28;20453;-74
2022/05/16 00:09:03;;;;;;;0.70;0.60;;;;;;;;;;5072661;28;20438;-74
2022/05/16 00:11:32;;;;;;;0.97;0.83;;;;;;;;;;5055783;28;20490;-75
2022/05/16 00:13:59;;;;;;;0.70;0.60;;;;;;;;;;5093675;28;20900;-74
2022/05/16 00:16:26;;;;;;;0.70;0.67;;;;;;;;;;5083922;28;20449;-74
2022/05/16 00:18:53;;;;;;;3.17;0.90;;;;;;;;;;5073586;28;20431;-74
2022/05/16 00:21:21;;;;;;;0.80;0.80;;;;;;;;;;5049019;28;21051;-74
2022/05/16 00:23:47;;;;;;;0.70;0.60;;;;;;;;;;5061025;28;20474;-74
2022/05/16 00:26:14;;;;;;;0.80;0.80;;;;;;;;;;5053976;28;20460;-74
2022/05/16 00:28:42;;;;;;;0.70;0.60;;;;;;;;;;5052547;28;20448;-75
2022/05/16 00:31:09;;;;;;;0.70;0.60;;;;;;;;;;5052564;28;20433;-75
2022/05/16 00:33:36;;;;;;;0.70;0.60;;;;;;;;;;5068708;28;20955;-74
2022/05/16 00:36:03;;;;;;;0.70;0.70;;;;;;;;;;5073928;28;20936;-75
2022/05/16 00:38:30;;;;;;;0.70;0.60;;;;;;;;;;5088428;28;20452;-75
2022/05/16 00:40:58;;;;;;;0.70;0.60;;;;;;;;;;5069682;28;20500;-76
2022/05/16 00:43:41;;;;;;;0.80;0.70;;;;;;;;;;5079833;28;20883;-76
2022/05/16 00:46:09;;;;;;;0.70;0.70;;;;;;;;;;5072382;28;20429;-77
2022/05/16 00:48:36;;;;;;;0.80;0.70;;;;;;;;;;5058461;28;20446;-75
2022/05/16 00:51:04;;;;;;;0.80;0.70;;;;;;;;;;5072063;28;21014;-75
2022/05/16 00:53:32;;;;;;;0.70;0.60;;;;;;;;;;5073903;28;20446;-75
2022/05/16 00:56:03;;;;;;;0.80;0.80;;;;;;;;;;5072928;28;20464;-76
2022/05/16 00:58:31;;;;;;;0.70;0.60;;;;;;;;;;5072132;28;20449;-76
2022/05/16 01:01:00;;;;;;;0.80;0.70;;;;;;;;;;5072628;28;20987;-75
2022/05/16 01:06:17;;;;;;;0.70;0.67;;;;;;;;;;5071127;28;20478;-75
2022/05/16 01:08:45;;;;;;;0.70;0.60;;;;;;;;;;5071779;28;20447;-75
2022/05/16 01:11:16;;;;;;;0.80;0.70;;;;;;;;;;5072934;28;20442;-75
2022/05/16 01:13:45;;;;;;;0.70;0.60;;;;;;;;;;5090643;28;20414;-75
2022/05/16 01:16:15;;;;;;;0.70;0.63;;;;;;;;;;5080013;28;20450;-75
2022/05/16 01:18:47;;;;;;;0.70;0.70;;;;;;;;;;5073948;28;20427;-76
2022/05/16 01:21:20;;;;;;;0.77;0.63;;;;;;;;;;5070990;28;20461;-75
2022/05/16 01:23:51;;;;;;;0.70;0.70;;;;;;;;;;5072274;28;20463;-75
2022/05/16 01:26:20;;;;;;;0.70;0.60;;;;;;;;;;5056627;28;20869;-75
2022/05/16 01:28:49;;;;;;;0.80;0.70;;;;;;;;;;5056315;28;20573;-75
2022/05/16 01:31:20;;;;;;;0.70;0.70;;;;;;;;;;5072218;28;20453;-76
2022/05/16 01:33:48;;;;;;;0.80;0.70;;;;;;;;;;5071799;28;20469;-75
2022/05/16 01:36:16;;;;;;;0.70;0.60;;;;;;;;;;5072499;28;20946;-75
2022/05/16 01:38:45;;;;;;;0.80;0.70;;;;;;;;;;5071526;28;20505;-76
2022/05/16 01:41:19;;;;;;;0.77;0.70;;;;;;;;;;5072211;28;20459;-73
2022/05/16 01:43:49;;;;;;;0.70;0.60;;;;;;;;;;5054123;28;20502;-74
2022/05/16 01:46:20;;;;;;;0.80;0.70;;;;;;;;;;5059612;28;20450;-73
2022/05/16 01:48:48;;;;;;;0.70;0.60;;;;;;;;;;5054914;28;20484;-75
2022/05/16 01:51:15;;;;;;;0.80;0.70;;;;;;;;;;5073424;28;20450;-75
2022/05/16 01:53:43;;;;;;;0.80;0.73;;;;;;;;;;5071466;28;21019;-75
2022/05/16 01:56:12;;;;;;;0.70;0.60;;;;;;;;;;5071587;28;20461;-76
2022/05/16 01:58:44;;;;;;;0.80;0.70;;;;;;;;;;5054550;28;20858;-76
2022/05/16 02:01:14;;;;;;;0.70;0.70;;;;;;;;;;5073622;28;20531;-75
2022/05/16 02:03:46;;;;;;;0.80;0.70;;;;;;;;;;5074481;28;20470;-75
2022/05/16 02:06:16;;;;;;;0.80;0.70;;;;;;;;;;5073976;28;20466;-75
2022/05/16 02:08:43;;;;;;;0.70;0.60;;;;;;;;;;5076784;28;20471;-75
2022/05/16 02:11:10;;;;;;;0.70;0.70;;;;;;;;;;5074040;28;20782;-75
2022/05/16 02:13:38;;;;;;;0.70;0.60;;;;;;;;;;5076111;28;20816;-75
2022/05/16 02:16:07;;;;;;;0.70;0.60;;;;;;;;;;5072697;28;20526;-76
2022/05/16 02:18:34;;;;;;;0.70;0.70;;;;;;;;;;5067595;28;20460;-76
2022/05/16 02:26:33;;;;;;;0.70;0.70;;;;;;;;;;5074523;28;20887;-75
2022/05/16 02:29:00;;;;;;;0.70;0.60;;;;;;;;;;5073704;28;20447;-75
2022/05/16 02:31:28;;;;;;;0.70;0.60;;;;;;;;;;5075812;28;20407;-75
2022/05/16 02:33:56;;;;;;;0.70;0.60;;;;;;;;;;5075272;28;20524;-76
2022/05/16 02:36:23;;;;;;;0.70;0.60;;;;;;;;;;5075845;28;20986;-75
2022/05/16 02:38:50;;;;;;;0.70;0.60;;;;;;;;;;5058469;28;20484;-74
2022/05/16 02:41:16;;;;;;;0.70;0.60;;;;;;;;;;5075749;28;20475;-75
2022/05/16 02:43:43;;;;;;;1.00;0.90;;;;;;;;;;5078376;28;20891;-75
2022/05/16 02:46:10;;;;;;;0.70;0.60;;;;;;;;;;5074431;28;20533;-75
2022/05/16 02:48:39;;;;;;;0.70;0.60;;;;;;;;;;5075591;28;20421;-75
2022/05/16 02:51:06;;;;;;;0.80;0.70;;;;;;;;;;5074461;28;20548;-75
2022/05/16 02:53:32;;;;;;;0.70;0.60;;;;;;;;;;5091765;28;20453;-75
2022/05/16 02:55:59;;;;;;;0.70;0.60;;;;;;;;;;5073994;28;20849;-75
2022/05/16 02:58:26;;;;;;;0.70;0.60;;;;;;;;;;5074644;28;20445;-76
2022/05/16 03:00:53;;;;;;;0.70;0.60;;;;;;;;;;5074084;28;20946;-76
2022/05/16 03:03:20;;;;;;;0.70;0.60;;;;;;;;;;5075267;28;20474;-75
2022/05/16 03:05:48;;;;;;;0.70;0.60;;;;;;;;;;5074060;28;20465;-74
2022/05/16 03:08:15;;;;;;;0.80;0.70;;;;;;;;;;5074213;28;20874;-76
2022/05/16 03:10:46;;;;;;;0.70;0.70;;;;;;;;;;5075530;28;20910;-76
2022/05/16 03:13:13;;;;;;;0.80;0.70;;;;;;;;;;5073694;28;20449;-74
2022/05/16 03:15:41;;;;;;;0.90;0.80;;;;;;;;;;5073024;28;20481;-75
2022/05/16 03:18:08;;;;;;;0.70;0.60;;;;;;;;;;5072208;28;20499;-76
2022/05/16 03:20:35;;;;;;;0.70;0.60;;;;;;;;;;5067322;28;20533;-75
2022/05/16 03:23:04;;;;;;;0.70;0.60;;;;;;;;;;5075442;28;20825;-75
2022/05/16 03:25:32;;;;;;;0.70;0.60;;;;;;;;;;5083178;28;20545;-74
2022/05/16 03:27:59;;;;;;;0.70;0.70;;;;;;;;;;5072029;28;20934;-73
2022/05/16 03:30:26;;;;;;;0.80;0.70;;;;;;;;;;5092172;28;20495;-76
2022/05/16 03:32:53;;;;;;;0.70;0.60;;;;;;;;;;5074088;28;20442;-75
2022/05/16 03:35:19;;;;;;;0.70;0.60;;;;;;;;;;5074987;28;20452;-75
2022/05/16 03:37:47;;;;;;;0.70;0.63;;;;;;;;;;5074502;28;20507;-75
2022/05/16 03:43:01;;;;;;;0.70;0.60;;;;;;;;;;5059941;28;20511;-75
2022/05/16 03:45:30;;;;;;;0.70;0.60;;;;;;;;;;5048083;28;20813;-75
2022/05/16 03:47:58;;;;;;;0.70;0.70;;;;;;;;;;5073936;28;20451;-76
2022/05/16 03:50:26;;;;;;;0.70;0.60;;;;;;;;;;5056856;28;20774;-75
2022/05/16 03:52:53;;;;;;;0.70;0.60;;;;;;;;;;5091996;28;20432;-75
2022/05/16 03:55:21;;;;;;;0.70;0.60;;;;;;;;;;5074481;28;20473;-75
2022/05/16 03:57:48;;;;;;;0.70;0.60;;;;;;;;;;5074124;28;20452;-75
2022/05/16 04:00:16;;;;;;;0.70;0.60;;;;;;;;;;5072276;28;20538;-75
2022/05/16 04:02:43;;;;;;;0.70;0.60;;;;;;;;;;5073306;28;20443;-74
2022/05/16 04:05:14;;;;;;;0.70;0.60;;;;;;;;;;5074300;28;20551;-75
2022/05/16 04:07:42;;;;;;;0.70;0.70;;;;;;;;;;5072434;28;20878;-75
2022/05/16 04:10:09;;;;;;;0.70;0.67;;;;;;;;;;5074346;28;20415;-75
2022/05/16 04:12:38;;;;;;;0.80;0.70;;;;;;;;;;5070976;28;20442;-75
2022/05/16 04:15:05;;;;;;;0.90;0.80;;;;;;;;;;5072648;28;20800;-75
2022/05/16 04:17:32;;;;;;;0.70;0.60;;;;;;;;;;5072370;28;20439;-74
2022/05/16 04:19:59;;;;;;;0.70;0.70;;;;;;;;;;5072424;28;20435;-75
2022/05/16 04:22:26;;;;;;;0.80;0.80;;;;;;;;;;5089257;28;20466;-76
2022/05/16 04:24:54;;;;;;;0.80;0.70;;;;;;;;;;5073199;28;20999;-75
2022/05/16 04:27:23;;;;;;;0.80;0.70;;;;;;;;;;5073414;28;20449;-75
2022/05/16 04:29:51;;;;;;;1.00;0.90;;;;;;;;;;5072553;28;20493;-74
2022/05/16 04:32:18;;;;;;;0.80;0.70;;;;;;;;;;5071221;28;20539;-74
2022/05/16 04:34:44;;;;;;;0.70;0.60;;;;;;;;;;5087115;28;20441;-75
2022/05/16 04:37:11;;;;;;;1.57;1.07;;;;;;;;;;5054575;28;20481;-75
2022/05/16 04:39:38;;;;;;;0.87;0.70;;;;;;;;;;5075220;28;20443;-75
2022/05/16 04:44:51;;;;;;;0.80;0.80;;;;;;;;;;5091197;28;20457;-74
2022/05/16 04:47:18;;;;;;;0.70;0.70;;;;;;;;;;5091756;28;20429;-75
2022/05/16 04:49:45;;;;;;;1.00;0.90;;;;;;;;;;5079069;28;20433;-74
2022/05/16 04:52:11;;;;;;;0.70;0.60;;;;;;;;;;5072558;28;20493;-74
2022/05/16 04:54:40;;;;;;;0.80;0.80;;;;;;;;;;5071082;28;20459;-74
2022/05/16 04:57:07;;;;;;;0.70;0.60;;;;;;;;;;5073270;28;20577;-75
2022/05/16 04:59:33;;;;;;;0.80;0.70;;;;;;;;;;5073516;28;20996;-75
2022/05/16 05:02:02;;;;;;;0.80;0.70;;;;;;;;;;5072340;28;20449;-76
2022/05/16 05:04:28;;;;;;;0.70;0.60;;;;;;;;;;5055178;28;20476;-75
2022/05/16 05:06:57;;;;;;;0.80;0.80;;;;;;;;;;5071788;28;20825;-75
2022/05/16 05:09:24;;;;;;;0.80;0.70;;;;;;;;;;5073504;28;20854;-75
2022/05/16 05:14:38;;;;;;;5.53;1.33;;;;;;;;;;5092446;28;20412;-75
2022/05/16 05:17:07;;;;;;;0.70;0.70;;;;;;;;;;5093752;28;20593;-75
2022/05/16 05:19:35;;;;;;;0.70;0.70;;;;;;;;;;5093572;28;20443;-76
2022/05/16 05:22:03;;;;;;;0.73;0.70;;;;;;;;;;5109290;28;20902;-74
2022/05/16 05:24:30;;;;;;;0.80;0.60;;;;;;;;;;5092932;28;20460;-75
2022/05/16 05:26:57;;;;;;;0.80;0.70;;;;;;;;;;5109189;28;20438;-76
2022/05/16 05:29:24;;;;;;;0.73;0.70;;;;;;;;;;5092842;28;20428;-75
2022/05/16 05:31:52;;;;;;;0.70;0.70;;;;;;;;;;5092402;28;20800;-75
2022/05/16 05:34:22;;;;;;;0.90;0.90;;;;;;;;;;5092356;28;20426;-75
2022/05/16 05:36:50;;;;;;;0.80;0.70;;;;;;;;;;5097062;28;20560;-75
2022/05/16 05:39:18;;;;;;;0.87;0.87;;;;;;;;;;5097440;28;20793;-75
2022/05/16 05:41:46;;;;;;;0.70;0.63;;;;;;;;;;5094083;28;20480;-75
2022/05/16 05:44:14;;;;;;;0.70;0.70;;;;;;;;;;5059005;28;20437;-76
2022/05/16 05:46:41;;;;;;;0.73;0.70;;;;;;;;;;5058334;28;20439;-75
2022/05/16 05:49:09;;;;;;;0.80;0.70;;;;;;;;;;5074746;28;20441;-75
2022/05/16 05:51:38;;;;;;;0.70;0.60;;;;;;;;;;5091869;28;20480;-75
2022/05/16 05:54:06;;;;;;;0.80;0.70;;;;;;;;;;5076284;28;20427;-75
2022/05/16 05:56:33;;;;;;;0.70;0.70;;;;;;;;;;5075719;28;20435;-75
2022/05/16 05:59:01;;;;;;;0.80;0.70;;;;;;;;;;5076007;28;20427;-75
2022/05/16 06:01:27;;;;;;;0.70;0.60;;;;;;;;;;5076542;28;20440;-74
2022/05/16 06:03:54;;;;;;;1.87;1.47;;;;;;;;;;5076350;28;20458;-75
2022/05/16 06:06:21;;;;;;;0.70;0.60;;;;;;;;;;5074752;28;20479;-75
2022/05/16 06:08:49;;;;;;;0.70;0.60;;;;;;;;;;5090901;28;20823;-75
2022/05/16 06:11:17;;;;;;;0.70;0.60;;;;;;;;;;5075110;28;20416;-73
2022/05/16 06:13:45;;;;;;;0.80;0.80;;;;;;;;;;5095419;28;20430;-73
2022/05/16 06:16:15;;;;;;;1.00;0.90;;;;;;;;;;5096774;28;20832;-74
2022/05/16 06:18:42;;;;;;;0.80;0.73;;;;;;;;;;5095759;28;20792;-74
2022/05/16 06:21:09;;;;;;;0.70;0.60;;;;;;;;;;5077599;28;20459;-74
2022/05/16 06:23:36;;;;;;;0.80;0.70;;;;;;;;;;5078628;28;20433;-75
2022/05/16 06:26:05;;;;;;;1.00;0.90;;;;;;;;;;5091672;28;20661;-75
2022/05/16 06:28:37;;;;;;;0.70;0.67;;;;;;;;;;5055569;28;20451;-74
2022/05/16 06:31:04;;;;;;;0.80;0.70;;;;;;;;;;5074257;28;21008;-75
2022/05/16 06:33:31;;;;;;;0.80;0.70;;;;;;;;;;5090912;28;20486;-73
2022/05/16 06:35:59;;;;;;;0.70;0.70;;;;;;;;;;5057703;28;20453;-73
2022/05/16 06:38:26;;;;;;;0.70;0.70;;;;;;;;;;5075963;28;20938;-73
2022/05/16 06:40:53;;;;;;;0.70;0.60;;;;;;;;;;5075068;28;20426;-75
2022/05/16 06:43:23;;;;;;;0.70;0.60;;;;;;;;;;5090146;28;20617;-74
2022/05/16 06:45:50;;;;;;;0.77;0.67;;;;;;;;;;5094513;28;20464;-74
2022/05/16 06:48:17;;;;;;;0.70;0.60;;;;;;;;;;5073483;28;20430;-72
2022/05/16 06:50:45;;;;;;;0.80;0.77;;;;;;;;;;5074538;28;20447;-74
2022/05/16 06:53:14;;;;;;;0.80;0.70;;;;;;;;;;5058179;28;20456;-74
2022/05/16 06:55:42;;;;;;;0.77;0.73;;;;;;;;;;5074582;28;20512;-75
2022/05/16 06:58:08;;;;;;;0.80;0.70;;;;;;;;;;5073605;28;20436;-73
2022/05/16 07:00:37;;;;;;;0.70;0.60;;;;;;;;;;5074605;28;20916;-73
2022/05/16 07:03:03;;;;;;;0.70;0.60;;;;;;;;;;5074307;28;20415;-73
2022/05/16 07:05:47;;;;;;;0.73;0.70;;;;;;;;;;5074235;28;20478;-74
2022/05/16 07:08:14;;;;;;;0.80;0.70;;;;;;;;;;5075185;28;20981;-74
2022/05/16 07:10:41;;;;;;;0.80;0.70;;;;;;;;;;5057502;28;20534;-73
2022/05/16 07:13:08;;;;;;;0.70;0.70;;;;;;;;;;5088994;28;20432;-73
2022/05/16 07:15:35;;;;;;;0.80;0.70;;;;;;;;;;5093778;28;20857;-74
2022/05/16 07:18:03;;;;;;;1.07;0.70;;;;;;;;;;5085598;28;20446;-73
2022/05/16 07:20:36;;;;;;;0.70;0.60;;;;;;;;;;5077086;28;20417;-74
2022/05/16 07:23:03;;;;;;;0.70;0.70;;;;;;;;;;5095160;28;20413;-74
2022/05/16 07:25:32;;;;;;;1.40;1.30;;;;;;;;;;5093567;28;20512;-72
2022/05/16 07:28:06;;;;;;;0.80;0.70;;;;;;;;;;5078521;28;20503;-73
2022/05/16 07:30:35;;;;;;;0.80;0.70;;;;;;;;;;5093673;28;20406;-74
2022/05/16 07:33:03;;;;;;;0.80;0.80;;;;;;;;;;5076645;28;20850;-75
2022/05/16 07:35:32;;;;;;;0.70;0.60;;;;;;;;;;5094978;28;20436;-74
2022/05/16 07:37:59;;;;;;;0.73;0.70;;;;;;;;;;5093152;28;20431;-74
2022/05/16 07:40:29;;;;;;;0.70;0.63;;;;;;;;;;5094915;28;20429;-74
2022/05/16 07:42:56;;;;;;;0.70;0.60;;;;;;;;;;5069854;28;20455;-74
2022/05/16 07:45:23;;;;;;;0.73;0.63;;;;;;;;;;5053653;28;20467;-74
2022/05/16 07:47:50;;;;;;;0.80;0.70;;;;;;;;;;5059900;28;20496;-75
2022/05/16 07:50:23;;;;;;;0.80;0.70;;;;;;;;;;5073001;28;20407;-73
2022/05/16 07:52:50;;;;;;;0.80;0.70;;;;;;;;;;5056237;28;20456;-74
2022/05/16 07:55:19;;;;;;;0.80;0.70;;;;;;;;;;5073473;28;20427;-73
2022/05/16 07:57:46;;;;;;;0.80;0.80;;;;;;;;;;5072978;28;20455;-73
2022/05/16 08:00:17;;;;;;;1.53;1.43;;;;;;;;;;5074517;28;20883;-73
2022/05/16 08:02:44;;;;;;;0.93;0.83;;;;;;;;;;5072698;28;20471;-73
2022/05/16 08:05:12;;;;;;;0.80;0.70;;;;;;;;;;5056089;28;20462;-73
2022/05/16 08:10:30;;;;;;;0.70;0.70;;;;;;;;;;5074190;28;20425;-73
2022/05/16 08:12:58;;;;;;;1.30;1.20;;;;;;;;;;5081293;28;20454;-74
2022/05/16 08:15:25;;;;;;;0.77;0.70;;;;;;;;;;5089622;28;20416;-73
2022/05/16 08:17:52;;;;;;;0.80;0.80;;;;;;;;;;5086045;28;20953;-75
2022/05/16 08:20:24;;;;;;;1.47;1.37;;;;;;;;;;5072557;28;20436;-74
2022/05/16 08:22:52;;;;;;;0.70;0.70;;;;;;;;;;5071500;28;20947;-73
2022/05/16 08:25:19;;;;;;;0.80;0.70;;;;;;;;;;5071944;28;20431;-75
2022/05/16 08:27:50;;;;;;;0.80;0.70;;;;;;;;;;5073520;28;20453;-74
2022/05/16 08:30:17;;;;;;;2.20;1.00;;;;;;;;;;5072706;28;20909;-75
2022/05/16 08:32:46;;;;;;;0.70;0.67;;;;;;;;;;5055459;28;20433;-74
2022/05/16 08:35:15;;;;;;;0.87;0.87;;;;;;;;;;5073323;28;20448;-73
2022/05/16 08:40:35;;;;;;;0.80;0.70;;;;;;;;;;5073853;28;20429;-74
2022/05/16 08:43:12;;;;;;;0.80;0.80;;;;;;;;;;5072204;28;20457;-73
2022/05/16 08:45:40;;;;;;;3.43;1.27;;;;;;;;;;5072903;28;20462;-74
2022/05/16 08:48:08;;;;;;;0.90;0.70;;;;;;;;;;5072549;28;20998;-75
2022/05/16 08:50:39;;;;;;;0.80;0.70;;;;;;;;;;5071998;28;20911;-73
2022/05/16 08:53:08;;;;;;;0.80;0.70;;;;;;;;;;5071982;28;20492;-74
2022/05/16 08:55:38;;;;;;;0.80;0.80;;;;;;;;;;5073845;28;20435;-74
2022/05/16 08:58:09;;;;;;;0.80;0.70;;;;;;;;;;5072801;28;20467;-74
2022/05/16 09:00:41;;;;;;;0.80;0.73;;;;;;;;;;5073331;28;20423;-74
2022/05/16 09:03:12;;;;;;;0.80;0.70;;;;;;;;;;5073662;28;20419;-74
2022/05/16 09:05:44;;;;;;;0.70;0.60;;;;;;;;;;5054142;28;20459;-74
2022/05/16 09:08:14;;;;;;;0.80;0.70;;;;;;;;;;5071128;28;20447;-74
2022/05/16 09:10:52;;;;;;;0.80;0.80;;;;;;;;;;5076303;28;20797;-73
2022/05/16 09:13:25;;;;;;;1.97;1.07;;;;;;;;;;5080570;28;20467;-72
2022/05/16 09:15:56;;;;;;;0.70;0.60;;;;;;;;;;5058798;28;20435;-73
2022/05/16 09:18:28;;;;;;;0.80;0.70;;;;;;;;;;5059950;28;20903;-73
2022/05/16 09:21:01;;;;;;;0.80;0.70;;;;;;;;;;5059567;28;20458;-72
2022/05/16 09:23:31;;;;;;;1.17;1.00;;;;;;;;;;5057081;28;20470;-72
2022/05/16 09:26:02;;;;;;;0.80;0.70;;;;;;;;;;5074127;28;20510;-72
2022/05/16 09:28:37;;;;;;;0.93;0.83;;;;;;;;;;5074321;28;20440;-73
2022/05/16 09:31:14;;;;;;;0.73;0.60;;;;;;;;;;5059509;28;20485;-72
2022/05/16 09:33:43;;;;;;;0.70;0.50;;;;;;;;;;5058578;28;20431;-73
2022/05/16 09:36:12;;;;;;;1.00;0.60;;;;;;;;;;5059001;28;20493;-71
2022/05/16 09:38:44;;;;;;;1.00;0.70;;;;;;;;;;5058097;28;20440;-71
2022/05/16 09:41:17;;;;;;;0.80;0.60;;;;;;;;;;5041577;28;20456;-72
2022/05/16 09:43:45;;;;;;;0.80;0.60;;;;;;;;;;5094584;28;20441;-72
2022/05/16 09:46:19;;;;;;;0.90;0.60;;;;;;;;;;5081613;28;20827;-73
2022/05/16 09:48:46;;;;;;;1.10;1.00;;;;;;;;;;5100327;28;20420;-72
2022/05/16 09:51:15;;;;;;;0.80;0.60;;;;;;;;;;5081865;28;20462;-73
2022/05/16 09:53:45;;;;;;;0.80;0.60;;;;;;;;;;5098676;28;20503;-72
2022/05/16 09:56:33;;;;;;;0.90;0.70;;;;;;;;;;5078549;28;20435;-74
2022/05/16 09:59:01;;;;;;;2.60;0.70;;;;;;;;;;5092350;28;20504;-73
2022/05/16 10:01:31;;;;;;;0.80;0.60;;;;;;;;;;5079098;28;20429;-73
2022/05/16 10:04:07;;;;;;;1.33;1.00;;;;;;;;;;5079498;28;20919;-73
2022/05/16 10:06:37;;;;;;;1.67;1.50;;;;;;;;;;5077924;28;20473;-73
2022/05/16 10:09:04;;;;;;;0.90;0.80;;;;;;;;;;5079730;28;20461;-73
2022/05/16 10:11:31;;;;;;;0.80;0.60;;;;;;;;;;5079667;28;20430;-73
2022/05/16 10:13:59;;;;;;;0.90;0.60;;;;;;;;;;5100065;28;20945;-73
2022/05/16 10:16:29;;;;;;;1.10;0.80;;;;;;;;;;5097371;28;20411;-72
2022/05/16 10:18:58;;;;;;;0.93;0.67;;;;;;;;;;5092657;28;20504;-74
2022/05/16 10:21:27;;;;;;;1.23;1.13;;;;;;;;;;5071271;28;20458;-72
2022/05/16 10:23:55;;;;;;;1.10;0.63;;;;;;;;;;5075172;28;20464;-73
2022/05/16 10:26:23;;;;;;;1.17;0.83;;;;;;;;;;5074525;28;20446;-73
2022/05/16 10:28:52;;;;;;;0.90;0.67;;;;;;;;;;5075944;28;20422;-73
2022/05/16 10:34:09;;;;;;;1.30;1.00;;;;;;;;;;5074936;28;20419;-74
2022/05/16 10:36:36;;;;;;;1.00;0.80;;;;;;;;;;5073659;28;20458;-73
2022/05/16 10:39:05;;;;;;;0.90;0.60;;;;;;;;;;5074448;28;20463;-74
2022/05/16 10:41:35;;;;;;;0.90;0.60;;;;;;;;;;5074326;28;20446;-74
2022/05/16 10:44:08;;;;;;;1.00;0.80;;;;;;;;;;5096850;28;20211;-73
2022/05/16 10:46:39;;;;;;;1.00;0.67;;;;;;;;;;5058459;28;20466;-73
2022/05/16 10:49:09;;;;;;;0.90;0.60;;;;;;;;;;5075196;28;20430;-73
2022/05/16 10:51:40;;;;;;;0.90;0.50;;;;;;;;;;5074233;28;20490;-74
2022/05/16 10:54:11;;;;;;;1.03;0.83;;;;;;;;;;5075304;28;20446;-73
2022/05/16 10:56:53;;;;;;;0.90;0.50;;;;;;;;;;5074204;28;20430;-73
2022/05/16 10:59:27;;;;;;;0.90;0.60;;;;;;;;;;5074670;28;20858;-72
2022/05/16 11:01:58;;;;;;;0.90;0.63;;;;;;;;;;5057823;28;20983;-72
2022/05/16 11:04:33;;;;;;;0.90;0.60;;;;;;;;;;5074268;28;20431;-75
2022/05/16 11:07:06;;;;;;;0.90;0.50;;;;;;;;;;5073349;28;20470;-73
2022/05/16 11:09:38;;;;;;;1.00;0.70;;;;;;;;;;5074913;28;20423;-73
2022/05/16 11:12:08;;;;;;;0.80;0.50;;;;;;;;;;5061984;28;20453;-73
2022/05/16 11:14:38;;;;;;;0.90;0.80;;;;;;;;;;5094787;28;20526;-73
2022/05/16 11:17:10;;;;;;;0.80;0.50;;;;;;;;;;5095616;28;20906;-73
2022/05/16 11:19:42;;;;;;;0.87;0.63;;;;;;;;;;5094329;28;20479;-72
2022/05/16 11:22:13;;;;;;;1.00;0.90;;;;;;;;;;5094043;28;20969;-74
2022/05/16 11:24:47;;;;;;;0.80;0.50;;;;;;;;;;5094158;28;20426;-71
2022/05/16 11:27:22;;;;;;;0.80;0.50;;;;;;;;;;5094670;28;20564;-72
2022/05/16 11:29:55;;;;;;;0.80;0.60;;;;;;;;;;5095249;28;20767;-72
2022/05/16 11:32:27;;;;;;;2.50;1.07;;;;;;;;;;5076917;28;20427;-72
2022/05/16 11:34:58;;;;;;;0.70;0.50;;;;;;;;;;5076550;28;20453;-73
2022/05/16 11:37:32;;;;;;;0.90;0.67;;;;;;;;;;5110323;28;20985;-71
2022/05/16 11:40:04;;;;;;;1.73;1.63;;;;;;;;;;5094129;28;20426;-71
2022/05/16 11:42:34;;;;;;;0.80;0.80;;;;;;;;;;5095286;28;20503;-71
2022/05/16 11:45:08;;;;;;;0.90;0.70;;;;;;;;;;5093680;28;20844;-74
2022/05/16 11:47:38;;;;;;;0.80;0.60;;;;;;;;;;5109608;28;20465;-72
2022/05/16 11:50:28;;;;;;;0.90;0.80;;;;;;;;;;5083419;28;20431;-70
2022/05/16 11:53:11;;;;;;;1.10;1.00;;;;;;;;;;5072557;28;20460;-71
2022/05/16 12:01:27;;;;;;;0.80;0.70;;;;;;;;;;5072771;28;20833;-70
2022/05/16 12:04:04;;;;;;;0.80;0.60;;;;;;;;;;5072028;28;20439;-70
2022/05/16 12:06:35;;;;;;;0.80;0.70;;;;;;;;;;5073794;28;20957;-70
2022/05/16 12:09:20;;;;;;;0.80;0.67;;;;;;;;;;5073902;28;20422;-70
2022/05/16 12:11:51;;;;;;;0.80;0.70;;;;;;;;;;5072351;28;20461;-69
2022/05/16 12:14:28;;;;;;;0.80;0.80;;;;;;;;;;5071770;28;20423;-70
2022/05/16 12:16:58;;;;;;;0.80;0.60;;;;;;;;;;5074367;28;20412;-70
2022/05/16 12:19:34;;;;;;;0.80;0.70;;;;;;;;;;5073933;28;20406;-70
2022/05/16 12:22:04;;;;;;;0.80;0.60;;;;;;;;;;5073924;28;20489;-71
2022/05/16 12:24:32;;;;;;;0.80;0.73;;;;;;;;;;5073209;28;20386;-70
2022/05/16 12:27:01;;;;;;;0.77;0.70;;;;;;;;;;5074239;28;20510;-70
2022/05/16 12:29:30;;;;;;;0.80;0.70;;;;;;;;;;5072061;28;20438;-70
2022/05/16 12:31:58;;;;;;;0.70;0.70;;;;;;;;;;5074195;28;20920;-69
2022/05/16 12:34:40;;;;;;;0.80;0.70;;;;;;;;;;5074421;28;20422;-70
2022/05/16 12:37:11;;;;;;;0.80;0.77;;;;;;;;;;5072573;28;20479;-70
2022/05/16 12:39:39;;;;;;;0.80;0.70;;;;;;;;;;5082197;28;20435;-70
2022/05/16 12:42:16;;;;;;;0.70;0.60;;;;;;;;;;5067386;28;20456;-69
2022/05/16 12:44:47;;;;;;;0.80;0.70;;;;;;;;;;5053267;28;20430;-70
2022/05/16 12:47:41;;;;;;;0.80;0.80;;;;;;;;;;5069046;28;20494;-70
2022/05/16 12:50:23;;;;;;;1.00;0.90;;;;;;;;;;5029879;28;20450;-71
2022/05/16 12:53:15;;;;;;;0.80;0.80;;;;;;;;;;5067542;28;20459;-72
2022/05/16 12:55:52;;;;;;;0.70;0.60;;;;;;;;;;5052486;28;20451;-73
2022/05/16 12:58:21;;;;;;;0.70;0.60;;;;;;;;;;5070433;28;20473;-72
2022/05/16 13:00:52;;;;;;;0.80;0.80;;;;;;;;;;5071326;28;20502;-73
2022/05/16 13:03:23;;;;;;;0.90;0.80;;;;;;;;;;5071529;28;20427;-72
2022/05/16 13:05:56;;;;;;;0.70;0.67;;;;;;;;;;5072436;28;20450;-73
2022/05/16 13:08:45;;;;;;;0.80;0.70;;;;;;;;;;5072654;28;20523;-73
2022/05/16 13:11:17;;;;;;;0.70;0.63;;;;;;;;;;5055375;28;20502;-72
2022/05/16 13:13:59;;;;;;;0.77;0.70;;;;;;;;;;5092069;28;20429;-72
2022/05/16 13:16:27;;;;;;;0.70;0.60;;;;;;;;;;5092734;28;20449;-71
2022/05/16 13:18:56;;;;;;;0.80;0.80;;;;;;;;;;5074790;28;20444;-72
2022/05/16 13:21:32;;;;;;;1.10;1.07;;;;;;;;;;5075354;28;20470;-72
2022/05/16 13:23:59;;;;;;;1.37;0.90;;;;;;;;;;5075711;28;20438;-73
2022/05/16 13:29:22;;;;;;;0.70;0.60;;;;;;;;;;5093722;28;20408;-72
2022/05/16 13:31:51;;;;;;;0.70;0.60;;;;;;;;;;5109135;28;20460;-72
2022/05/16 13:34:29;;;;;;;0.70;0.60;;;;;;;;;;5092012;28;20448;-72
2022/05/16 13:36:56;;;;;;;0.83;0.80;;;;;;;;;;5092750;28;20725;-71
2022/05/16 13:39:23;;;;;;;0.80;0.70;;;;;;;;;;5092805;28;20408;-74
2022/05/16 13:41:56;;;;;;;0.80;0.70;;;;;;;;;;5093265;28;20445;-71
2022/05/16 13:44:23;;;;;;;1.10;1.00;;;;;;;;;;5092989;28;21005;-72
2022/05/16 13:46:52;;;;;;;0.80;0.70;;;;;;;;;;5089214;28;20548;-72
2022/05/16 13:49:19;;;;;;;0.80;0.70;;;;;;;;;;5071901;28;20854;-71
2022/05/16 13:51:47;;;;;;;0.80;0.70;;;;;;;;;;5072914;28;20455;-71
2022/05/16 13:54:16;;;;;;;0.80;0.80;;;;;;;;;;5087374;28;20434;-71
2022/05/16 13:56:46;;;;;;;0.80;0.70;;;;;;;;;;5073924;28;20987;-71
2022/05/16 13:59:20;;;;;;;0.70;0.70;;;;;;;;;;5075688;28;20981;-71
2022/05/16 14:01:52;;;;;;;0.70;0.60;;;;;;;;;;5076625;28;20484;-71
2022/05/16 14:04:22;;;;;;;0.70;0.67;;;;;;;;;;5075028;28;20793;-71
2022/05/16 14:06:50;;;;;;;0.80;0.73;;;;;;;;;;5074393;28;20482;-71
2022/05/16 14:09:20;;;;;;;1.47;1.37;;;;;;;;;;5092090;28;20452;-71
2022/05/16 14:11:48;;;;;;;0.70;0.60;;;;;;;;;;5075107;28;20526;-72
2022/05/16 14:14:19;;;;;;;1.00;0.90;;;;;;;;;;5074117;28;20950;-71
2022/05/16 14:16:50;;;;;;;0.70;0.70;;;;;;;;;;5074984;28;20453;-71
2022/05/16 14:19:28;;;;;;;0.70;0.70;;;;;;;;;;5075910;28;20427;-71
2022/05/16 14:22:00;;;;;;;1.37;0.90;;;;;;;;;;5075408;28;20473;-71
2022/05/16 14:24:31;;;;;;;0.70;0.70;;;;;;;;;;5074570;28;20441;-72
2022/05/16 14:26:59;;;;;;;1.50;0.90;;;;;;;;;;5079434;28;20926;-71
2022/05/16 14:29:30;;;;;;;0.80;0.70;;;;;;;;;;5086348;28;20418;-71
2022/05/16 14:32:02;;;;;;;0.80;0.80;;;;;;;;;;5093868;28;20438;-74
2022/05/16 14:34:31;;;;;;;0.80;0.70;;;;;;;;;;5085045;28;21354;-71
2022/05/16 14:37:20;;;;;;;0.70;0.70;;;;;;;;;;5084169;28;20971;-71
2022/05/16 14:39:49;;;;;;;0.70;0.70;;;;;;;;;;5052416;28;20409;-70
2022/05/16 14:42:27;;;;;;;0.80;0.70;;;;;;;;;;5064074;28;20451;-70
2022/05/16 14:45:02;;;;;;;0.73;0.70;;;;;;;;;;5067160;28;20419;-71
2022/05/16 14:47:32;;;;;;;0.80;0.70;;;;;;;;;;5067167;28;20450;-71
2022/05/16 14:50:00;;;;;;;0.80;0.80;;;;;;;;;;5064939;28;20455;-71
2022/05/16 14:52:27;;;;;;;0.80;0.70;;;;;;;;;;5070088;28;20541;-69
2022/05/16 14:55:05;;;;;;;0.80;0.73;;;;;;;;;;5075470;28;20502;-72
2022/05/16 14:57:31;;;;;;;1.50;0.80;;;;;;;;;;5069707;28;20877;-71
2022/05/16 15:00:00;;;;;;;1.53;1.20;;;;;;;;;;5064920;28;20402;-70
2022/05/16 15:05:13;;;;;;;0.70;0.70;;;;;;;;;;5081099;28;20447;-72
2022/05/16 15:07:41;;;;;;;0.87;0.87;;;;;;;;;;5056309;28;20528;-72
2022/05/16 15:10:10;;;;;;;1.07;0.97;;;;;;;;;;5075166;28;20394;-71
2022/05/16 15:12:42;;;;;;;0.70;0.70;;;;;;;;;;5090728;28;20408;-71
2022/05/16 15:15:10;;;;;;;0.80;0.70;;;;;;;;;;5074081;28;20808;-72
2022/05/16 15:17:38;;;;;;;0.90;0.80;;;;;;;;;;5073799;28;20488;-71
2022/05/16 15:20:06;;;;;;;0.90;0.80;;;;;;;;;;5067559;28;20435;-70
2022/05/16 15:22:33;;;;;;;0.80;0.80;;;;;;;;;;5061438;28;20427;-72
2022/05/16 15:25:00;;;;;;;0.80;0.70;;;;;;;;;;5058865;28;20893;-71
2022/05/16 15:27:27;;;;;;;0.80;0.70;;;;;;;;;;5072839;28;20435;-71
2022/05/16 15:29:54;;;;;;;0.77;0.63;;;;;;;;;;5075101;28;20909;-70
2022/05/16 15:32:22;;;;;;;0.70;0.60;;;;;;;;;;5073936;28;20424;-70
2022/05/16 15:34:50;;;;;;;1.27;0.70;;;;;;;;;;5073575;28;20427;-70